sensor_id;sensor_type;location;lat;lon;timestamp;pressure;altitude;pressure_sealevel;temperature;humidity
49723;BME280;43484;43.608;1.458;2022-10-15T00:00:42;99931.41;;;17.11;100.00
49723;BME280;43484;43.608;1.458;2022-10-15T00:03:09;99920.13;;;17.01;100.00
49723;BME280;43484;43.608;1.458;2022-10-15T00:05:38;99918.41;;;16.99;100.00
49723;BME280;43484;43.608;1.458;2022-10-15T00:08:06;99919.22;;;16.95;100.00
49723;BME280;43484;43.608;1.458;2022-10-15T00:10:34;99906.25;;;16.86;100.00
49723;BME280;43484;43.608;1.458;2022-10-15T00:13:02;99895.03;;;16.81;100.00
49723;BME280;43484;43.608;1.458;2022-10-15T00:15:29;99883.78;;;16.82;100.00
49723;BME280;43484;43.608;1.458;2022-10-15T00:17:56;99888.94;;;16.73;100.00
49723;BME280;43484;43.608;1.458;2022-10-15T00:20:23;99877.72;;;16.71;100.00
49723;BME280;43484;43.608;1.458;2022-10-15T00:22:49;99870.78;;;16.70;100.00
49723;BME280;43484;43.608;1.458;2022-10-15T00:25:16;99870.78;;;16.65;100.00
49723;BME280;43484;43.608;1.458;2022-10-15T00:27:43;99877.72;;;16.71;100.00
49723;BME280;43484;43.608;1.458;2022-10-15T00:30:10;99883.78;;;16.76;100.00
49723;BME280;43484;43.608;1.458;2022-10-15T00:32:36;99874.31;;;16.78;100.00
49723;BME280;43484;43.608;1.458;2022-10-15T00:35:03;99877.72;;;16.77;100.00
49723;BME280;43484;43.608;1.458;2022-10-15T00:37:30;99872.56;;;16.75;100.00
49723;BME280;43484;43.608;1.458;2022-10-15T00:39:57;99866.47;;;16.63;100.00
49723;BME280;43484;43.608;1.458;2022-10-15T00:42:24;99858.72;;;16.63;100.00
49723;BME280;43484;43.608;1.458;2022-10-15T00:44:54;99857.84;;;16.67;100.00
49723;BME280;43484;43.608;1.458;2022-10-15T00:47:40;99857.00;;;16.69;100.00
49723;BME280;43484;43.608;1.458;2022-10-15T00:50:10;99867.34;;;16.68;100.00
49723;BME280;43484;43.608;1.458;2022-10-15T00:52:43;99870.78;;;16.70;100.00
49723;BME280;43484;43.608;1.458;2022-10-15T00:55:17;99869.91;;;16.66;100.00
49723;BME280;43484;43.608;1.458;2022-10-15T00:57:45;99862.13;;;16.63;100.00
49723;BME280;43484;43.608;1.458;2022-10-15T01:00:14;99852.66;;;16.59;100.00
49723;BME280;43484;43.608;1.458;2022-10-15T01:02:42;99839.72;;;16.58;100.00
49723;BME280;43484;43.608;1.458;2022-10-15T01:05:10;99837.97;;;16.54;100.00
49723;BME280;43484;43.608;1.458;2022-10-15T01:07:37;99837.97;;;16.55;100.00
49723;BME280;43484;43.608;1.458;2022-10-15T01:10:05;99844.00;;;16.56;100.00
49723;BME280;43484;43.608;1.458;2022-10-15T01:15:28;99835.34;;;16.51;100.00
49723;BME280;43484;43.608;1.458;2022-10-15T01:17:58;99830.13;;;16.46;100.00
49723;BME280;43484;43.608;1.458;2022-10-15T01:20:36;99826.63;;;16.40;100.00
49723;BME280;43484;43.608;1.458;2022-10-15T01:31:44;99801.63;;;16.36;100.00
49723;BME280;43484;43.608;1.458;2022-10-15T01:34:20;99796.44;;;16.33;100.00
49723;BME280;43484;43.608;1.458;2022-10-15T01:39:48;99796.41;;;16.28;100.00
49723;BME280;43484;43.608;1.458;2022-10-15T01:42:24;99792.06;;;16.22;100.00
49723;BME280;43484;43.608;1.458;2022-10-15T01:44:58;99786.03;;;16.19;100.00
49723;BME280;43484;43.608;1.458;2022-10-15T01:47:39;99778.28;;;16.22;100.00
49723;BME280;43484;43.608;1.458;2022-10-15T01:50:10;99781.69;;;16.21;100.00
49723;BME280;43484;43.608;1.458;2022-10-15T01:52:39;99781.69;;;16.19;100.00
49723;BME280;43484;43.608;1.458;2022-10-15T01:55:10;99777.41;;;16.21;100.00
49723;BME280;43484;43.608;1.458;2022-10-15T01:57:40;99774.81;;;16.20;100.00
49723;BME280;43484;43.608;1.458;2022-10-15T02:00:08;99778.28;;;16.22;100.00
49723;BME280;43484;43.608;1.458;2022-10-15T02:02:35;99791.22;;;16.28;100.00
49723;BME280;43484;43.608;1.458;2022-10-15T02:05:06;99785.22;;;16.29;100.00
49723;BME280;43484;43.608;1.458;2022-10-15T02:13:06;99760.13;;;16.13;100.00
49723;BME280;43484;43.608;1.458;2022-10-15T02:15:48;99750.66;;;16.16;100.00
49723;BME280;43484;43.608;1.458;2022-10-15T02:18:40;99757.50;;;16.05;100.00
49723;BME280;43484;43.608;1.458;2022-10-15T02:21:36;99740.22;;;15.95;100.00
49723;BME280;43484;43.608;1.458;2022-10-15T02:24:20;99734.16;;;15.93;100.00
49723;BME280;43484;43.608;1.458;2022-10-15T02:26:51;99718.63;;;15.87;100.00
49723;BME280;43484;43.608;1.458;2022-10-15T02:29:21;99715.22;;;15.96;100.00
49723;BME280;43484;43.608;1.458;2022-10-15T02:31:49;99721.25;;;15.90;100.00
49723;BME280;43484;43.608;1.458;2022-10-15T02:34:18;99715.25;;;15.97;100.00
49723;BME280;43484;43.608;1.458;2022-10-15T02:36:46;99711.72;;;15.88;100.00
49723;BME280;43484;43.608;1.458;2022-10-15T02:39:20;99705.75;;;15.92;100.00
49723;BME280;43484;43.608;1.458;2022-10-15T02:41:53;99709.13;;;15.83;100.00
49723;BME280;43484;43.608;1.458;2022-10-15T02:44:20;99699.59;;;15.76;100.00
49723;BME280;43484;43.608;1.458;2022-10-15T02:46:47;99704.06;;;16.06;100.00
49723;BME280;43484;43.608;1.458;2022-10-15T02:49:13;99709.25;;;16.06;100.00
49723;BME280;43484;43.608;1.458;2022-10-15T02:51:40;99718.75;;;16.10;100.00
49723;BME280;43484;43.608;1.458;2022-10-15T02:54:06;99723.00;;;15.97;100.00
49723;BME280;43484;43.608;1.458;2022-10-15T02:56:34;99704.75;;;15.75;100.00
49723;BME280;43484;43.608;1.458;2022-10-15T02:59:01;99706.56;;;15.88;100.00
49723;BME280;43484;43.608;1.458;2022-10-15T03:01:27;99697.03;;;15.81;100.00
49723;BME280;43484;43.608;1.458;2022-10-15T03:03:54;99686.69;;;15.75;100.00
49723;BME280;43484;43.608;1.458;2022-10-15T03:06:21;99684.09;;;15.73;100.00
49723;BME280;43484;43.608;1.458;2022-10-15T03:08:47;99679.75;;;15.68;100.00
49723;BME280;43484;43.608;1.458;2022-10-15T03:11:14;99664.22;;;15.60;100.00
49723;BME280;43484;43.608;1.458;2022-10-15T03:13:41;99665.03;;;15.55;100.00
49723;BME280;43484;43.608;1.458;2022-10-15T03:16:08;99649.53;;;15.56;100.00
49723;BME280;43484;43.608;1.458;2022-10-15T03:18:36;99653.00;;;15.55;100.00
49723;BME280;43484;43.608;1.458;2022-10-15T03:21:06;99640.09;;;15.54;100.00
49723;BME280;43484;43.608;1.458;2022-10-15T03:23:33;99634.88;;;15.49;100.00
49723;BME280;43484;43.608;1.458;2022-10-15T03:25:59;99632.34;;;15.58;100.00
49723;BME280;43484;43.608;1.458;2022-10-15T03:28:26;99639.25;;;15.61;100.00
49723;BME280;43484;43.608;1.458;2022-10-15T03:30:52;99634.84;;;15.48;100.00
49723;BME280;43484;43.608;1.458;2022-10-15T03:33:19;99630.59;;;15.56;100.00
49723;BME280;43484;43.608;1.458;2022-10-15T03:35:50;99630.59;;;15.51;100.00
49723;BME280;43484;43.608;1.458;2022-10-15T03:38:18;99623.63;;;15.43;100.00
49723;BME280;43484;43.608;1.458;2022-10-15T03:40:45;99611.50;;;15.34;100.00
49723;BME280;43484;43.608;1.458;2022-10-15T03:43:12;99602.88;;;15.29;100.00
49723;BME280;43484;43.608;1.458;2022-10-15T03:45:38;99590.81;;;15.28;100.00
49723;BME280;43484;43.608;1.458;2022-10-15T03:48:05;99594.25;;;15.27;100.00
49723;BME280;43484;43.608;1.458;2022-10-15T03:50:32;99589.03;;;15.20;100.00
49723;BME280;43484;43.608;1.458;2022-10-15T03:53:02;99582.19;;;15.26;100.00
49723;BME280;43484;43.608;1.458;2022-10-15T03:55:28;99586.50;;;15.26;100.00
49723;BME280;43484;43.608;1.458;2022-10-15T03:57:55;99577.00;;;15.19;100.00
49723;BME280;43484;43.608;1.458;2022-10-15T04:00:21;99569.28;;;15.22;100.00
49723;BME280;43484;43.608;1.458;2022-10-15T04:02:48;99570.97;;;15.15;100.00
49723;BME280;43484;43.608;1.458;2022-10-15T04:05:14;99571.78;;;15.14;100.00
49723;BME280;43484;43.608;1.458;2022-10-15T04:07:41;99556.28;;;15.11;100.00
49723;BME280;43484;43.608;1.458;2022-10-15T04:10:08;99553.72;;;15.14;100.00
49723;BME280;43484;43.608;1.458;2022-10-15T04:12:35;99553.72;;;15.09;100.00
49723;BME280;43484;43.608;1.458;2022-10-15T04:15:02;99560.56;;;15.07;100.00
49723;BME280;43484;43.608;1.458;2022-10-15T04:17:29;99553.69;;;15.06;100.00
49723;BME280;43484;43.608;1.458;2022-10-15T04:19:55;99548.47;;;15.00;100.00
49723;BME280;43484;43.608;1.458;2022-10-15T04:22:22;99543.28;;;14.94;100.00
49723;BME280;43484;43.608;1.458;2022-10-15T04:24:49;99537.22;;;14.89;100.00
49723;BME280;43484;43.608;1.458;2022-10-15T04:27:15;99519.97;;;14.84;100.00
49723;BME280;43484;43.608;1.458;2022-10-15T04:29:42;99509.69;;;14.85;100.00
49723;BME280;43484;43.608;1.458;2022-10-15T04:32:12;99505.47;;;14.95;100.00
49723;BME280;43484;43.608;1.458;2022-10-15T04:34:40;99503.72;;;14.95;100.00
49723;BME280;43484;43.608;1.458;2022-10-15T04:37:06;99496.84;;;14.91;100.00
49723;BME280;43484;43.608;1.458;2022-10-15T04:39:33;99491.69;;;14.91;100.00
49723;BME280;43484;43.608;1.458;2022-10-15T04:42:00;99495.16;;;14.95;100.00
49723;BME280;43484;43.608;1.458;2022-10-15T04:44:26;99495.16;;;14.95;100.00
49723;BME280;43484;43.608;1.458;2022-10-15T04:46:53;99499.47;;;15.00;100.00
49723;BME280;43484;43.608;1.458;2022-10-15T04:49:19;99507.16;;;14.90;100.00
49723;BME280;43484;43.608;1.458;2022-10-15T04:51:46;99512.31;;;14.91;100.00
49723;BME280;43484;43.608;1.458;2022-10-15T04:54:13;99506.31;;;14.97;100.00
49723;BME280;43484;43.608;1.458;2022-10-15T04:56:39;99517.50;;;14.94;100.00
49723;BME280;43484;43.608;1.458;2022-10-15T04:59:07;99512.41;;;15.05;100.00
49723;BME280;43484;43.608;1.458;2022-10-15T05:01:34;99517.66;;;15.20;100.00
49723;BME280;43484;43.608;1.458;2022-10-15T05:04:00;99534.84;;;15.15;100.00
49723;BME280;43484;43.608;1.458;2022-10-15T05:06:27;99532.19;;;15.10;100.00
49723;BME280;43484;43.608;1.458;2022-10-15T05:08:53;99538.22;;;15.09;100.00
49723;BME280;43484;43.608;1.458;2022-10-15T05:11:23;99544.25;;;15.10;100.00
49723;BME280;43484;43.608;1.458;2022-10-15T05:13:50;99541.78;;;15.24;100.00
49723;BME280;43484;43.608;1.458;2022-10-15T05:16:19;99552.06;;;15.22;100.00
49723;BME280;43484;43.608;1.458;2022-10-15T05:18:48;99560.69;;;15.26;100.00
49723;BME280;43484;43.608;1.458;2022-10-15T05:21:16;99559.78;;;15.19;100.00
49723;BME280;43484;43.608;1.458;2022-10-15T05:23:43;99564.91;;;15.13;100.00
49723;BME280;43484;43.608;1.458;2022-10-15T05:26:13;99570.94;;;15.14;100.00
49723;BME280;43484;43.608;1.458;2022-10-15T05:28:40;99572.59;;;15.05;100.00
49723;BME280;43484;43.608;1.458;2022-10-15T05:31:16;99564.00;;;15.06;100.00
49723;BME280;43484;43.608;1.458;2022-10-15T05:33:45;99571.75;;;15.08;100.00
49723;BME280;43484;43.608;1.458;2022-10-15T05:38:50;99584.59;;;15.00;100.00
49723;BME280;43484;43.608;1.458;2022-10-15T05:41:18;99568.19;;;14.94;100.00
49723;BME280;43484;43.608;1.458;2022-10-15T05:43:49;99561.31;;;14.88;100.00
49723;BME280;43484;43.608;1.458;2022-10-15T05:46:16;99554.38;;;14.83;100.00
49723;BME280;43484;43.608;1.458;2022-10-15T05:48:48;99556.09;;;14.85;100.00
49723;BME280;43484;43.608;1.458;2022-10-15T05:51:15;99558.75;;;14.90;100.00
49723;BME280;43484;43.608;1.458;2022-10-15T05:53:42;99558.75;;;14.90;100.00
49723;BME280;43484;43.608;1.458;2022-10-15T05:56:12;99570.75;;;14.88;100.00
49723;BME280;43484;43.608;1.458;2022-10-15T05:58:40;99564.72;;;14.89;100.00
49723;BME280;43484;43.608;1.458;2022-10-15T06:01:11;99572.47;;;14.92;100.00
49723;BME280;43484;43.608;1.458;2022-10-15T06:03:39;99584.53;;;14.88;100.00
49723;BME280;43484;43.608;1.458;2022-10-15T06:06:35;99583.66;;;14.88;100.00
49723;BME280;43484;43.608;1.458;2022-10-15T06:09:02;99588.78;;;14.85;100.00
49723;BME280;43484;43.608;1.458;2022-10-15T06:11:29;99590.50;;;14.87;100.00
49723;BME280;43484;43.608;1.458;2022-10-15T06:13:55;99597.38;;;14.87;100.00
49723;BME280;43484;43.608;1.458;2022-10-15T06:16:22;99590.47;;;14.83;100.00
49723;BME280;43484;43.608;1.458;2022-10-15T06:18:51;99585.34;;;14.89;100.00
49723;BME280;43484;43.608;1.458;2022-10-15T06:21:19;99605.22;;;14.97;100.00
49723;BME280;43484;43.608;1.458;2022-10-15T06:23:45;99606.06;;;14.98;100.00
49723;BME280;43484;43.608;1.458;2022-10-15T06:26:12;99610.34;;;14.94;100.00
49723;BME280;43484;43.608;1.458;2022-10-15T06:28:39;99606.84;;;14.85;100.00
49723;BME280;43484;43.608;1.458;2022-10-15T06:31:06;99600.75;;;14.78;100.00
49723;BME280;43484;43.608;1.458;2022-10-15T06:33:34;99583.56;;;14.82;100.00
49723;BME280;43484;43.608;1.458;2022-10-15T06:36:02;99571.44;;;14.69;100.00
49723;BME280;43484;43.608;1.458;2022-10-15T06:38:29;99562.00;;;14.71;100.00
49723;BME280;43484;43.608;1.458;2022-10-15T06:40:56;99548.28;;;14.73;100.00
49723;BME280;43484;43.608;1.458;2022-10-15T06:43:23;99555.16;;;14.76;100.00
49723;BME280;43484;43.608;1.458;2022-10-15T06:45:50;99544.88;;;14.77;100.00
49723;BME280;43484;43.608;1.458;2022-10-15T06:48:17;99538.88;;;14.80;100.00
49723;BME280;43484;43.608;1.458;2022-10-15T06:50:43;99546.69;;;14.90;100.00
49723;BME280;43484;43.608;1.458;2022-10-15T06:53:10;99557.88;;;14.91;100.00
49723;BME280;43484;43.608;1.458;2022-10-15T06:55:36;99562.13;;;14.84;100.00
49723;BME280;43484;43.608;1.458;2022-10-15T06:58:04;99564.72;;;14.89;100.00
49723;BME280;43484;43.608;1.458;2022-10-15T07:00:31;99573.34;;;14.92;100.00
49723;BME280;43484;43.608;1.458;2022-10-15T07:03:04;99587.13;;;14.94;100.00
49723;BME280;43484;43.608;1.458;2022-10-15T07:05:32;99587.16;;;14.99;100.00
49723;BME280;43484;43.608;1.458;2022-10-15T07:07:59;99583.66;;;14.88;100.00
49723;BME280;43484;43.608;1.458;2022-10-15T07:10:27;99574.22;;;14.90;100.00
49723;BME280;43484;43.608;1.458;2022-10-15T07:12:54;99570.00;;;15.04;100.00
49723;BME280;43484;43.608;1.458;2022-10-15T07:15:21;99576.91;;;15.08;100.00
49723;BME280;43484;43.608;1.458;2022-10-15T07:17:48;99577.75;;;15.07;100.00
49723;BME280;43484;43.608;1.458;2022-10-15T07:20:16;99584.63;;;15.03;100.00
49723;BME280;43484;43.608;1.458;2022-10-15T07:22:49;99575.19;;;15.07;100.00
49723;BME280;43484;43.608;1.458;2022-10-15T07:25:16;99579.53;;;15.16;100.00
49723;BME280;43484;43.608;1.458;2022-10-15T07:27:43;99576.13;;;15.14;100.00
49723;BME280;43484;43.608;1.458;2022-10-15T07:30:09;99578.75;;;15.24;100.00
49723;BME280;43484;43.608;1.458;2022-10-15T07:32:36;99585.66;;;15.30;100.00
49723;BME280;43484;43.608;1.458;2022-10-15T07:35:03;99596.81;;;15.24;100.00
49723;BME280;43484;43.608;1.458;2022-10-15T07:37:30;99594.19;;;15.20;100.00
49723;BME280;43484;43.608;1.458;2022-10-15T07:39:57;99600.19;;;15.17;100.00
49723;BME280;43484;43.608;1.458;2022-10-15T07:42:24;99596.81;;;15.24;100.00
49723;BME280;43484;43.608;1.458;2022-10-15T07:44:51;99608.03;;;15.32;100.00
49723;BME280;43484;43.608;1.458;2022-10-15T07:47:17;99615.00;;;15.39;100.00
49723;BME280;43484;43.608;1.458;2022-10-15T07:49:44;99628.81;;;15.44;100.00
49723;BME280;43484;43.608;1.458;2022-10-15T07:52:10;99632.28;;;15.46;100.00
49723;BME280;43484;43.608;1.458;2022-10-15T07:54:37;99632.28;;;15.51;100.00
49723;BME280;43484;43.608;1.458;2022-10-15T07:57:04;99646.09;;;15.54;100.00
49723;BME280;43484;43.608;1.458;2022-10-15T07:59:33;99651.31;;;15.62;100.00
49723;BME280;43484;43.608;1.458;2022-10-15T08:02:00;99647.06;;;15.70;100.00
49723;BME280;43484;43.608;1.458;2022-10-15T08:04:27;99662.63;;;15.80;100.00
49723;BME280;43484;43.608;1.458;2022-10-15T08:06:54;99677.22;;;15.75;100.00
49723;BME280;43484;43.608;1.458;2022-10-15T08:09:21;99672.91;;;15.74;100.00
49723;BME280;43484;43.608;1.458;2022-10-15T08:11:47;99675.56;;;15.89;100.00
49723;BME280;43484;43.608;1.458;2022-10-15T08:14:14;99687.69;;;15.98;100.00
49723;BME280;43484;43.608;1.458;2022-10-15T08:16:41;99696.28;;;15.95;100.00
49723;BME280;43484;43.608;1.458;2022-10-15T08:19:07;99692.84;;;15.99;100.00
49723;BME280;43484;43.608;1.458;2022-10-15T08:21:34;99706.78;;;16.25;100.00
49723;BME280;43484;43.608;1.458;2022-10-15T08:24:00;99720.59;;;16.32;100.00
49723;BME280;43484;43.608;1.458;2022-10-15T08:26:27;99724.94;;;16.39;100.00
49723;BME280;43484;43.608;1.458;2022-10-15T08:28:53;99738.78;;;16.46;100.00
49723;BME280;43484;43.608;1.458;2022-10-15T08:31:20;99731.91;;;16.52;100.00
49723;BME280;43484;43.608;1.458;2022-10-15T08:33:47;99743.16;;;16.62;100.00
49723;BME280;43484;43.608;1.458;2022-10-15T08:36:13;99746.66;;;16.74;100.00
49723;BME280;43484;43.608;1.458;2022-10-15T08:38:40;99748.41;;;16.95;100.00
49723;BME280;43484;43.608;1.458;2022-10-15T08:43:52;99753.63;;;17.08;100.00
49723;BME280;43484;43.608;1.458;2022-10-15T08:46:41;99746.78;;;17.21;100.00
49723;BME280;43484;43.608;1.458;2022-10-15T08:49:28;99742.44;;;17.33;100.00
49723;BME280;43484;43.608;1.458;2022-10-15T08:52:04;99749.38;;;17.34;100.00
49723;BME280;43484;43.608;1.458;2022-10-15T08:54:34;99746.84;;;17.48;100.00
49723;BME280;43484;43.608;1.458;2022-10-15T08:57:13;99745.09;;;17.56;100.00
49723;BME280;43484;43.608;1.458;2022-10-15T08:59:54;99744.22;;;17.59;100.00
49723;BME280;43484;43.608;1.458;2022-10-15T09:02:29;99749.41;;;17.66;100.00
49723;BME280;43484;43.608;1.458;2022-10-15T09:10:35;99733.81;;;17.92;100.00
49723;BME280;43484;43.608;1.458;2022-10-15T09:13:14;99734.72;;;17.86;100.00
49723;BME280;43484;43.608;1.458;2022-10-15T09:15:55;99733.00;;;17.46;100.00
49723;BME280;43484;43.608;1.458;2022-10-15T09:18:26;99727.81;;;17.88;100.00
49723;BME280;43484;43.608;1.458;2022-10-15T09:20:56;99722.59;;;18.03;100.00
49723;BME280;43484;43.608;1.458;2022-10-15T09:23:26;99729.44;;;18.21;100.00
49723;BME280;43484;43.608;1.458;2022-10-15T09:31:17;99731.09;;;18.55;100.00
49723;BME280;43484;43.608;1.458;2022-10-15T09:36:48;99731.88;;;18.69;100.00
49723;BME280;43484;43.608;1.458;2022-10-15T09:44:47;99731.78;;;18.84;100.00
49723;BME280;43484;43.608;1.458;2022-10-15T09:47:25;99728.28;;;18.97;100.00
49723;BME280;43484;43.608;1.458;2022-10-15T09:49:52;99728.19;;;19.08;100.00
49723;BME280;43484;43.608;1.458;2022-10-15T09:58:07;99729.72;;;19.42;100.00
49723;BME280;43484;43.608;1.458;2022-10-15T10:00:51;99719.25;;;19.48;100.00
49723;BME280;43484;43.608;1.458;2022-10-15T10:03:20;99723.59;;;19.49;100.00
49723;BME280;43484;43.608;1.458;2022-10-15T10:05:48;99728.72;;;19.58;100.00
49723;BME280;43484;43.608;1.458;2022-10-15T10:08:20;99719.09;;;19.66;100.00
49723;BME280;43484;43.608;1.458;2022-10-15T10:10:55;99713.81;;;19.76;100.00
49723;BME280;43484;43.608;1.458;2022-10-15T10:13:32;99712.91;;;19.80;100.00
49723;BME280;43484;43.608;1.458;2022-10-15T10:16:08;99713.72;;;19.87;100.00
49723;BME280;43484;43.608;1.458;2022-10-15T10:18:36;99707.56;;;19.97;100.00
49723;BME280;43484;43.608;1.458;2022-10-15T10:21:20;99708.22;;;20.19;100.00
49723;BME280;43484;43.608;1.458;2022-10-15T10:23:47;99702.75;;;20.38;100.00
49723;BME280;43484;43.608;1.458;2022-10-15T10:26:14;99691.34;;;20.48;100.00
49723;BME280;43484;43.608;1.458;2022-10-15T10:28:54;99689.50;;;20.59;100.00
49723;BME280;43484;43.608;1.458;2022-10-15T10:31:35;99691.91;;;20.74;100.00
49723;BME280;43484;43.608;1.458;2022-10-15T10:34:13;99692.75;;;20.73;100.00
49723;BME280;43484;43.608;1.458;2022-10-15T10:36:41;99691.72;;;20.86;100.00
49723;BME280;43484;43.608;1.458;2022-10-15T10:41:51;99689.06;;;20.91;100.00
49723;BME280;43484;43.608;1.458;2022-10-15T10:44:38;99685.50;;;20.98;100.00
49723;BME280;43484;43.608;1.458;2022-10-15T10:49:34;99685.50;;;20.98;100.00
49723;BME280;43484;43.608;1.458;2022-10-15T10:52:01;99675.81;;;21.06;100.00
49723;BME280;43484;43.608;1.458;2022-10-15T10:54:28;99681.03;;;21.06;100.00
49723;BME280;43484;43.608;1.458;2022-10-15T10:56:58;99675.69;;;21.13;100.00
49723;BME280;43484;43.608;1.458;2022-10-15T10:59:49;99671.31;;;21.15;100.00
49723;BME280;43484;43.608;1.458;2022-10-15T11:02:17;99665.03;;;21.29;100.00
49723;BME280;43484;43.608;1.458;2022-10-15T11:04:43;99658.81;;;21.37;100.00
49723;BME280;43484;43.608;1.458;2022-10-15T11:07:25;99650.09;;;21.40;100.00
49723;BME280;43484;43.608;1.458;2022-10-15T11:10:02;99643.03;;;21.46;100.00
49723;BME280;43484;43.608;1.458;2022-10-15T11:18:00;99642.81;;;21.58;100.00
49723;BME280;43484;43.608;1.458;2022-10-15T11:29:11;99626.69;;;21.84;100.00
49723;BME280;43484;43.608;1.458;2022-10-15T11:42:40;99622.41;;;22.24;100.00
49723;BME280;43484;43.608;1.458;2022-10-15T11:47:51;99609.28;;;22.28;100.00
49723;BME280;43484;43.608;1.458;2022-10-15T12:01:01;99586.25;;;22.46;100.00
49723;BME280;43484;43.608;1.458;2022-10-15T12:03:35;99585.22;;;22.54;100.00
49723;BME280;43484;43.608;1.458;2022-10-15T12:06:15;99574.72;;;22.57;100.00
49723;BME280;43484;43.608;1.458;2022-10-15T12:08:44;99572.03;;;22.60;100.00
49723;BME280;43484;43.608;1.458;2022-10-15T12:11:44;99567.53;;;22.67;100.00
49723;BME280;43484;43.608;1.458;2022-10-15T12:17:13;99559.53;;;22.73;100.00
49723;BME280;43484;43.608;1.458;2022-10-15T12:19:49;99553.28;;;22.80;100.00
49723;BME280;43484;43.608;1.458;2022-10-15T12:22:33;99543.41;;;22.92;100.00
49723;BME280;43484;43.608;1.458;2022-10-15T12:25:01;99543.41;;;22.91;100.00
49723;BME280;43484;43.608;1.458;2022-10-15T12:27:33;99545.25;;;22.87;100.00
49723;BME280;43484;43.608;1.458;2022-10-15T12:32:37;99534.81;;;22.87;100.00
49723;BME280;43484;43.608;1.458;2022-10-15T12:35:17;99524.31;;;22.89;100.00
49723;BME280;43484;43.608;1.458;2022-10-15T12:37:46;99531.03;;;22.99;100.00
49723;BME280;43484;43.608;1.458;2022-10-15T12:42:53;99514.63;;;22.94;100.00
49723;BME280;43484;43.608;1.458;2022-10-15T12:45:23;99504.56;;;23.11;100.00
49723;BME280;43484;43.608;1.458;2022-10-15T12:50:31;99494.56;;;23.26;100.00
49723;BME280;43484;43.608;1.458;2022-10-15T12:56:18;99472.53;;;23.36;100.00
49723;BME280;43484;43.608;1.458;2022-10-15T12:58:53;99470.97;;;23.31;100.00
49723;BME280;43484;43.608;1.458;2022-10-15T13:11:47;99436.56;;;23.74;100.00
49723;BME280;43484;43.608;1.458;2022-10-15T13:16:45;99423.78;;;23.92;100.00
49723;BME280;43484;43.608;1.458;2022-10-15T13:19:28;99420.13;;;23.98;100.00
49723;BME280;43484;43.608;1.458;2022-10-15T13:22:00;99411.34;;;24.00;100.00
49723;BME280;43484;43.608;1.458;2022-10-15T13:24:37;99406.00;;;24.03;100.00
49723;BME280;43484;43.608;1.458;2022-10-15T13:27:19;99402.34;;;24.09;100.00
49723;BME280;43484;43.608;1.458;2022-10-15T13:30:03;99394.50;;;24.09;100.00
49723;BME280;43484;43.608;1.458;2022-10-15T13:32:34;99398.09;;;24.06;100.00
49723;BME280;43484;43.608;1.458;2022-10-15T13:35:08;99389.97;;;24.14;100.00
49723;BME280;43484;43.608;1.458;2022-10-15T13:37:37;99379.06;;;24.27;100.00
49723;BME280;43484;43.608;1.458;2022-10-15T13:40:07;99387.63;;;24.32;100.00
49723;BME280;43484;43.608;1.458;2022-10-15T13:42:34;99383.13;;;24.36;100.00
49723;BME280;43484;43.608;1.458;2022-10-15T13:45:16;99371.63;;;24.41;100.00
49723;BME280;43484;43.608;1.458;2022-10-15T13:47:48;99372.16;;;24.51;100.00
49723;BME280;43484;43.608;1.458;2022-10-15T13:50:23;99370.88;;;24.62;100.00
49723;BME280;43484;43.608;1.458;2022-10-15T13:53:00;99376.03;;;24.64;100.00
49723;BME280;43484;43.608;1.458;2022-10-15T13:55:33;99370.53;;;24.73;100.00
49723;BME280;43484;43.608;1.458;2022-10-15T13:58:20;99367.44;;;24.87;100.00
49723;BME280;43484;43.608;1.458;2022-10-15T14:00:59;99364.69;;;24.90;100.00
49723;BME280;43484;43.608;1.458;2022-10-15T14:03:31;99360.13;;;24.95;100.00
49723;BME280;43484;43.608;1.458;2022-10-15T14:06:18;99358.31;;;24.97;100.00
49723;BME280;43484;43.608;1.458;2022-10-15T14:08:47;99357.34;;;24.99;100.00
49723;BME280;43484;43.608;1.458;2022-10-15T14:11:14;99355.72;;;24.97;100.00
49723;BME280;43484;43.608;1.458;2022-10-15T14:13:59;99347.53;;;25.04;100.00
49723;BME280;43484;43.608;1.458;2022-10-15T14:16:45;99342.47;;;25.00;100.00
49723;BME280;43484;43.608;1.458;2022-10-15T14:19:20;99347.84;;;24.97;100.00
49723;BME280;43484;43.608;1.458;2022-10-15T14:21:52;99347.72;;;25.00;100.00
49723;BME280;43484;43.608;1.458;2022-10-15T14:24:20;99338.81;;;25.04;100.00
49723;BME280;43484;43.608;1.458;2022-10-15T14:26:48;99340.38;;;25.09;100.00
49723;BME280;43484;43.608;1.458;2022-10-15T14:29:20;99341.34;;;25.07;100.00
49723;BME280;43484;43.608;1.458;2022-10-15T14:31:48;99339.28;;;25.15;100.00
49723;BME280;43484;43.608;1.458;2022-10-15T14:37:02;99340.25;;;25.12;100.00
49723;BME280;43484;43.608;1.458;2022-10-15T14:39:34;99334.88;;;25.15;100.00
49723;BME280;43484;43.608;1.458;2022-10-15T14:42:04;99329.75;;;25.12;100.00
49723;BME280;43484;43.608;1.458;2022-10-15T14:44:44;99339.13;;;25.19;100.00
49723;BME280;43484;43.608;1.458;2022-10-15T14:47:24;99339.78;;;25.24;100.00
49723;BME280;43484;43.608;1.458;2022-10-15T14:49:54;99330.28;;;25.22;100.00
49723;BME280;43484;43.608;1.458;2022-10-15T14:52:22;99334.72;;;25.20;100.00
49723;BME280;43484;43.608;1.458;2022-10-15T14:55:11;99334.69;;;25.21;100.00
49723;BME280;43484;43.608;1.458;2022-10-15T14:57:40;99327.59;;;25.23;100.00
49723;BME280;43484;43.608;1.458;2022-10-15T15:00:32;99327.81;;;25.17;100.00
49723;BME280;43484;43.608;1.458;2022-10-15T15:03:02;99329.69;;;25.14;100.00
49723;BME280;43484;43.608;1.458;2022-10-15T15:05:30;99327.06;;;25.14;100.00
49723;BME280;43484;43.608;1.458;2022-10-15T15:08:08;99328.06;;;25.11;100.00
49723;BME280;43484;43.608;1.458;2022-10-15T15:10:35;99332.50;;;25.09;100.00